sensor_id;sensor_type;location;lat;lon;timestamp;P1;durP1;ratioP1;P2;durP2;ratioP2
8474;SDS011;4274;52.012;8.448;2023-03-04T00:01:35;82.63;;;20.60;;
8474;SDS011;4274;52.012;8.448;2023-03-04T00:04:01;74.57;;;19.20;;
8474;SDS011;4274;52.012;8.448;2023-03-04T00:06:26;75.17;;;19.40;;
8474;SDS011;4274;52.012;8.448;2023-03-04T00:08:52;86.37;;;19.00;;
8474;SDS011;4274;52.012;8.448;2023-03-04T00:11:17;73.33;;;17.60;;
8474;SDS011;4274;52.012;8.448;2023-03-04T00:13:43;72.60;;;15.80;;
8474;SDS011;4274;52.012;8.448;2023-03-04T00:16:08;80.00;;;14.90;;
8474;SDS011;4274;52.012;8.448;2023-03-04T00:18:34;60.93;;;10.37;;
8474;SDS011;4274;52.012;8.448;2023-03-04T00:20:59;61.57;;;10.30;;
8474;SDS011;4274;52.012;8.448;2023-03-04T00:23:25;65.73;;;9.10;;
8474;SDS011;4274;52.012;8.448;2023-03-04T00:25:51;71.37;;;9.40;;
8474;SDS011;4274;52.012;8.448;2023-03-04T00:28:16;53.00;;;6.70;;
8474;SDS011;4274;52.012;8.448;2023-03-04T00:30:42;58.10;;;6.37;;
8474;SDS011;4274;52.012;8.448;2023-03-04T00:33:08;51.23;;;6.17;;
8474;SDS011;4274;52.012;8.448;2023-03-04T00:35:33;58.93;;;5.43;;
8474;SDS011;4274;52.012;8.448;2023-03-04T00:37:59;50.57;;;5.30;;
8474;SDS011;4274;52.012;8.448;2023-03-04T00:40:25;51.37;;;5.60;;
8474;SDS011;4274;52.012;8.448;2023-03-04T00:42:50;59.67;;;5.57;;
8474;SDS011;4274;52.012;8.448;2023-03-04T00:45:16;55.50;;;5.40;;
8474;SDS011;4274;52.012;8.448;2023-03-04T00:47:41;65.50;;;5.20;;
8474;SDS011;4274;52.012;8.448;2023-03-04T00:50:07;68.60;;;7.00;;
8474;SDS011;4274;52.012;8.448;2023-03-04T00:52:33;48.87;;;4.60;;
8474;SDS011;4274;52.012;8.448;2023-03-04T00:54:59;49.70;;;5.20;;
8474;SDS011;4274;52.012;8.448;2023-03-04T00:57:24;59.70;;;5.37;;
8474;SDS011;4274;52.012;8.448;2023-03-04T00:59:50;60.03;;;6.80;;
8474;SDS011;4274;52.012;8.448;2023-03-04T01:02:16;55.83;;;4.53;;
8474;SDS011;4274;52.012;8.448;2023-03-04T01:04:41;49.60;;;4.57;;
8474;SDS011;4274;52.012;8.448;2023-03-04T01:07:07;60.30;;;5.60;;
8474;SDS011;4274;52.012;8.448;2023-03-04T01:09:33;60.00;;;4.87;;
8474;SDS011;4274;52.012;8.448;2023-03-04T01:11:58;56.90;;;4.50;;
8474;SDS011;4274;52.012;8.448;2023-03-04T01:14:24;47.33;;;5.77;;
8474;SDS011;4274;52.012;8.448;2023-03-04T01:16:50;58.93;;;5.50;;
8474;SDS011;4274;52.012;8.448;2023-03-04T01:19:16;51.67;;;4.17;;
8474;SDS011;4274;52.012;8.448;2023-03-04T01:21:41;57.00;;;4.67;;
8474;SDS011;4274;52.012;8.448;2023-03-04T01:24:07;53.53;;;4.73;;
8474;SDS011;4274;52.012;8.448;2023-03-04T01:26:33;56.43;;;4.57;;
8474;SDS011;4274;52.012;8.448;2023-03-04T01:28:58;61.37;;;5.77;;
8474;SDS011;4274;52.012;8.448;2023-03-04T01:31:24;48.03;;;4.40;;
8474;SDS011;4274;52.012;8.448;2023-03-04T01:33:50;52.60;;;5.03;;
8474;SDS011;4274;52.012;8.448;2023-03-04T01:36:16;53.70;;;4.60;;
8474;SDS011;4274;52.012;8.448;2023-03-04T01:38:41;56.50;;;5.63;;
8474;SDS011;4274;52.012;8.448;2023-03-04T01:41:07;54.50;;;5.23;;
8474;SDS011;4274;52.012;8.448;2023-03-04T01:43:33;55.53;;;4.63;;
8474;SDS011;4274;52.012;8.448;2023-03-04T01:46:00;52.77;;;4.90;;
8474;SDS011;4274;52.012;8.448;2023-03-04T01:48:30;61.73;;;5.40;;
8474;SDS011;4274;52.012;8.448;2023-03-04T01:51:00;53.53;;;5.30;;
8474;SDS011;4274;52.012;8.448;2023-03-04T01:53:27;56.03;;;4.97;;
8474;SDS011;4274;52.012;8.448;2023-03-04T01:55:55;60.07;;;6.43;;
8474;SDS011;4274;52.012;8.448;2023-03-04T01:58:25;51.70;;;4.57;;
8474;SDS011;4274;52.012;8.448;2023-03-04T02:00:54;55.10;;;4.50;;
8474;SDS011;4274;52.012;8.448;2023-03-04T02:03:20;48.87;;;4.20;;
8474;SDS011;4274;52.012;8.448;2023-03-04T02:05:50;46.00;;;4.60;;
8474;SDS011;4274;52.012;8.448;2023-03-04T02:08:17;60.17;;;5.23;;
8474;SDS011;4274;52.012;8.448;2023-03-04T02:10:44;56.07;;;4.60;;
8474;SDS011;4274;52.012;8.448;2023-03-04T02:13:10;52.40;;;4.40;;
8474;SDS011;4274;52.012;8.448;2023-03-04T02:15:37;65.67;;;6.63;;
8474;SDS011;4274;52.012;8.448;2023-03-04T02:18:06;52.53;;;4.40;;
8474;SDS011;4274;52.012;8.448;2023-03-04T02:20:44;62.50;;;4.80;;
8474;SDS011;4274;52.012;8.448;2023-03-04T02:28:38;55.10;;;4.53;;
8474;SDS011;4274;52.012;8.448;2023-03-04T02:31:04;49.93;;;4.50;;
8474;SDS011;4274;52.012;8.448;2023-03-04T02:33:30;57.43;;;4.40;;
8474;SDS011;4274;52.012;8.448;2023-03-04T02:35:57;61.20;;;4.80;;
8474;SDS011;4274;52.012;8.448;2023-03-04T02:38:23;61.27;;;5.10;;
8474;SDS011;4274;52.012;8.448;2023-03-04T02:40:49;56.83;;;4.63;;
8474;SDS011;4274;52.012;8.448;2023-03-04T02:43:16;58.03;;;4.40;;
8474;SDS011;4274;52.012;8.448;2023-03-04T02:45:43;58.10;;;4.70;;
8474;SDS011;4274;52.012;8.448;2023-03-04T02:48:11;48.00;;;4.70;;
8474;SDS011;4274;52.012;8.448;2023-03-04T02:50:40;47.43;;;4.63;;
8474;SDS011;4274;52.012;8.448;2023-03-04T02:53:14;49.50;;;4.03;;
8474;SDS011;4274;52.012;8.448;2023-03-04T02:55:41;51.90;;;4.70;;
8474;SDS011;4274;52.012;8.448;2023-03-04T02:58:07;49.70;;;4.50;;
8474;SDS011;4274;52.012;8.448;2023-03-04T03:00:34;55.60;;;5.33;;
8474;SDS011;4274;52.012;8.448;2023-03-04T03:02:59;50.20;;;3.80;;
8474;SDS011;4274;52.012;8.448;2023-03-04T03:05:26;55.80;;;4.33;;
8474;SDS011;4274;52.012;8.448;2023-03-04T03:07:53;49.93;;;3.87;;
8474;SDS011;4274;52.012;8.448;2023-03-04T03:10:19;51.60;;;4.63;;
8474;SDS011;4274;52.012;8.448;2023-03-04T03:12:45;53.77;;;4.53;;
8474;SDS011;4274;52.012;8.448;2023-03-04T03:15:11;62.20;;;6.03;;
8474;SDS011;4274;52.012;8.448;2023-03-04T03:17:37;44.17;;;3.73;;
8474;SDS011;4274;52.012;8.448;2023-03-04T03:20:03;52.90;;;5.23;;
8474;SDS011;4274;52.012;8.448;2023-03-04T03:22:28;54.47;;;4.20;;
8474;SDS011;4274;52.012;8.448;2023-03-04T03:24:54;48.90;;;4.00;;
8474;SDS011;4274;52.012;8.448;2023-03-04T03:27:20;48.53;;;3.70;;
8474;SDS011;4274;52.012;8.448;2023-03-04T03:29:45;58.07;;;4.50;;
8474;SDS011;4274;52.012;8.448;2023-03-04T03:32:11;53.83;;;4.83;;
8474;SDS011;4274;52.012;8.448;2023-03-04T03:34:36;50.00;;;3.93;;
8474;SDS011;4274;52.012;8.448;2023-03-04T03:37:02;51.80;;;3.80;;
8474;SDS011;4274;52.012;8.448;2023-03-04T03:39:27;55.23;;;3.60;;
8474;SDS011;4274;52.012;8.448;2023-03-04T03:41:53;46.20;;;4.33;;
8474;SDS011;4274;52.012;8.448;2023-03-04T03:44:18;47.03;;;4.00;;
8474;SDS011;4274;52.012;8.448;2023-03-04T03:46:44;52.73;;;4.43;;
8474;SDS011;4274;52.012;8.448;2023-03-04T03:49:10;46.23;;;3.60;;
8474;SDS011;4274;52.012;8.448;2023-03-04T03:51:36;47.43;;;3.80;;
8474;SDS011;4274;52.012;8.448;2023-03-04T03:54:02;55.17;;;3.73;;
8474;SDS011;4274;52.012;8.448;2023-03-04T03:56:28;54.63;;;4.37;;
8474;SDS011;4274;52.012;8.448;2023-03-04T03:58:54;48.47;;;4.37;;
8474;SDS011;4274;52.012;8.448;2023-03-04T04:01:19;49.23;;;4.10;;
8474;SDS011;4274;52.012;8.448;2023-03-04T04:03:45;52.30;;;5.40;;
8474;SDS011;4274;52.012;8.448;2023-03-04T04:06:10;46.93;;;4.20;;
8474;SDS011;4274;52.012;8.448;2023-03-04T04:08:36;50.73;;;4.37;;
8474;SDS011;4274;52.012;8.448;2023-03-04T04:11:02;45.67;;;4.10;;
8474;SDS011;4274;52.012;8.448;2023-03-04T04:13:27;50.27;;;4.07;;
8474;SDS011;4274;52.012;8.448;2023-03-04T04:15:53;50.17;;;4.23;;
8474;SDS011;4274;52.012;8.448;2023-03-04T04:18:18;54.80;;;4.10;;
8474;SDS011;4274;52.012;8.448;2023-03-04T04:20:45;46.13;;;4.60;;
8474;SDS011;4274;52.012;8.448;2023-03-04T04:23:10;56.83;;;4.27;;
8474;SDS011;4274;52.012;8.448;2023-03-04T04:25:36;54.83;;;4.60;;
8474;SDS011;4274;52.012;8.448;2023-03-04T04:28:02;53.63;;;4.50;;
8474;SDS011;4274;52.012;8.448;2023-03-04T04:30:28;46.53;;;4.33;;
8474;SDS011;4274;52.012;8.448;2023-03-04T04:32:54;45.53;;;4.67;;
8474;SDS011;4274;52.012;8.448;2023-03-04T04:35:19;55.00;;;4.23;;
8474;SDS011;4274;52.012;8.448;2023-03-04T04:37:45;47.20;;;4.37;;
8474;SDS011;4274;52.012;8.448;2023-03-04T04:40:11;52.87;;;4.47;;
8474;SDS011;4274;52.012;8.448;2023-03-04T04:42:37;51.90;;;4.40;;
8474;SDS011;4274;52.012;8.448;2023-03-04T04:45:02;51.10;;;4.27;;
8474;SDS011;4274;52.012;8.448;2023-03-04T04:47:28;45.10;;;3.70;;
8474;SDS011;4274;52.012;8.448;2023-03-04T04:49:54;58.27;;;5.00;;
8474;SDS011;4274;52.012;8.448;2023-03-04T04:52:20;46.93;;;4.17;;
8474;SDS011;4274;52.012;8.448;2023-03-04T04:54:45;50.50;;;4.60;;
8474;SDS011;4274;52.012;8.448;2023-03-04T04:57:11;47.23;;;3.80;;
8474;SDS011;4274;52.012;8.448;2023-03-04T04:59:36;53.60;;;4.67;;
8474;SDS011;4274;52.012;8.448;2023-03-04T05:02:02;46.53;;;3.43;;
8474;SDS011;4274;52.012;8.448;2023-03-04T05:04:27;48.77;;;4.33;;
8474;SDS011;4274;52.012;8.448;2023-03-04T05:06:53;50.20;;;3.87;;
8474;SDS011;4274;52.012;8.448;2023-03-04T05:09:18;43.47;;;4.40;;
8474;SDS011;4274;52.012;8.448;2023-03-04T05:11:45;50.97;;;4.63;;
8474;SDS011;4274;52.012;8.448;2023-03-04T05:14:10;52.83;;;6.53;;
8474;SDS011;4274;52.012;8.448;2023-03-04T05:16:36;48.20;;;4.20;;
8474;SDS011;4274;52.012;8.448;2023-03-04T05:19:01;54.50;;;6.23;;
8474;SDS011;4274;52.012;8.448;2023-03-04T05:21:27;57.90;;;4.30;;
8474;SDS011;4274;52.012;8.448;2023-03-04T05:23:53;43.80;;;3.73;;
8474;SDS011;4274;52.012;8.448;2023-03-04T05:26:18;49.30;;;4.10;;
8474;SDS011;4274;52.012;8.448;2023-03-04T05:28:44;54.70;;;4.80;;
8474;SDS011;4274;52.012;8.448;2023-03-04T05:31:09;48.20;;;4.43;;
8474;SDS011;4274;52.012;8.448;2023-03-04T05:33:35;48.40;;;3.90;;
8474;SDS011;4274;52.012;8.448;2023-03-04T05:36:02;49.20;;;4.10;;
8474;SDS011;4274;52.012;8.448;2023-03-04T05:38:28;51.97;;;4.77;;
8474;SDS011;4274;52.012;8.448;2023-03-04T05:40:55;45.83;;;3.80;;
8474;SDS011;4274;52.012;8.448;2023-03-04T05:43:22;60.30;;;5.20;;
8474;SDS011;4274;52.012;8.448;2023-03-04T05:45:49;45.43;;;3.70;;
8474;SDS011;4274;52.012;8.448;2023-03-04T05:48:14;45.80;;;3.90;;
8474;SDS011;4274;52.012;8.448;2023-03-04T05:50:40;50.40;;;3.70;;
8474;SDS011;4274;52.012;8.448;2023-03-04T05:53:05;52.40;;;4.60;;
8474;SDS011;4274;52.012;8.448;2023-03-04T05:55:31;44.60;;;4.03;;
8474;SDS011;4274;52.012;8.448;2023-03-04T05:57:57;40.50;;;3.50;;
8474;SDS011;4274;52.012;8.448;2023-03-04T06:00:22;46.80;;;3.70;;
8474;SDS011;4274;52.012;8.448;2023-03-04T06:02:49;50.30;;;5.10;;
8474;SDS011;4274;52.012;8.448;2023-03-04T06:05:15;45.23;;;4.30;;
8474;SDS011;4274;52.012;8.448;2023-03-04T06:07:41;50.43;;;3.97;;
8474;SDS011;4274;52.012;8.448;2023-03-04T06:10:08;54.03;;;3.93;;
8474;SDS011;4274;52.012;8.448;2023-03-04T06:12:35;47.30;;;3.83;;
8474;SDS011;4274;52.012;8.448;2023-03-04T06:15:00;44.67;;;3.87;;
8474;SDS011;4274;52.012;8.448;2023-03-04T06:17:27;44.20;;;3.77;;
8474;SDS011;4274;52.012;8.448;2023-03-04T06:19:53;43.63;;;3.50;;
8474;SDS011;4274;52.012;8.448;2023-03-04T06:22:19;50.73;;;3.90;;
8474;SDS011;4274;52.012;8.448;2023-03-04T06:24:44;43.30;;;4.20;;
8474;SDS011;4274;52.012;8.448;2023-03-04T06:27:10;46.33;;;3.53;;
8474;SDS011;4274;52.012;8.448;2023-03-04T06:29:37;49.83;;;3.70;;
8474;SDS011;4274;52.012;8.448;2023-03-04T06:32:03;44.37;;;3.70;;
8474;SDS011;4274;52.012;8.448;2023-03-04T06:34:29;47.57;;;4.33;;
8474;SDS011;4274;52.012;8.448;2023-03-04T06:36:54;50.47;;;4.60;;
8474;SDS011;4274;52.012;8.448;2023-03-04T06:39:20;45.20;;;3.87;;
8474;SDS011;4274;52.012;8.448;2023-03-04T06:41:45;44.83;;;3.87;;
8474;SDS011;4274;52.012;8.448;2023-03-04T06:44:11;57.53;;;4.23;;
8474;SDS011;4274;52.012;8.448;2023-03-04T06:46:36;44.53;;;4.33;;
8474;SDS011;4274;52.012;8.448;2023-03-04T06:49:02;54.17;;;4.67;;
8474;SDS011;4274;52.012;8.448;2023-03-04T06:51:28;55.00;;;4.20;;
8474;SDS011;4274;52.012;8.448;2023-03-04T06:53:54;46.37;;;3.70;;
8474;SDS011;4274;52.012;8.448;2023-03-04T06:56:20;46.07;;;4.17;;
8474;SDS011;4274;52.012;8.448;2023-03-04T06:58:46;47.37;;;3.97;;
8474;SDS011;4274;52.012;8.448;2023-03-04T07:01:15;46.17;;;4.30;;
8474;SDS011;4274;52.012;8.448;2023-03-04T07:03:43;58.83;;;4.80;;
8474;SDS011;4274;52.012;8.448;2023-03-04T07:06:12;46.33;;;4.03;;
8474;SDS011;4274;52.012;8.448;2023-03-04T07:08:39;43.83;;;3.70;;
8474;SDS011;4274;52.012;8.448;2023-03-04T07:11:06;52.10;;;4.30;;
8474;SDS011;4274;52.012;8.448;2023-03-04T07:13:32;48.07;;;4.23;;
8474;SDS011;4274;52.012;8.448;2023-03-04T07:15:59;50.00;;;4.70;;
8474;SDS011;4274;52.012;8.448;2023-03-04T07:18:25;47.10;;;4.70;;
8474;SDS011;4274;52.012;8.448;2023-03-04T07:20:51;46.23;;;4.10;;
8474;SDS011;4274;52.012;8.448;2023-03-04T07:23:17;48.93;;;4.60;;
8474;SDS011;4274;52.012;8.448;2023-03-04T07:25:44;51.33;;;3.90;;
8474;SDS011;4274;52.012;8.448;2023-03-04T07:28:09;48.30;;;4.63;;
8474;SDS011;4274;52.012;8.448;2023-03-04T07:30:35;48.83;;;4.40;;
8474;SDS011;4274;52.012;8.448;2023-03-04T07:33:00;47.93;;;4.10;;
8474;SDS011;4274;52.012;8.448;2023-03-04T07:35:26;48.67;;;4.57;;
8474;SDS011;4274;52.012;8.448;2023-03-04T07:37:52;48.53;;;4.17;;
8474;SDS011;4274;52.012;8.448;2023-03-04T07:40:17;46.80;;;4.10;;
8474;SDS011;4274;52.012;8.448;2023-03-04T07:42:43;51.60;;;4.67;;
8474;SDS011;4274;52.012;8.448;2023-03-04T07:45:14;47.17;;;4.17;;
8474;SDS011;4274;52.012;8.448;2023-03-04T07:47:40;56.23;;;4.23;;
8474;SDS011;4274;52.012;8.448;2023-03-04T07:50:05;46.57;;;4.17;;
8474;SDS011;4274;52.012;8.448;2023-03-04T07:52:31;43.57;;;4.10;;
8474;SDS011;4274;52.012;8.448;2023-03-04T07:54:57;53.53;;;4.37;;
8474;SDS011;4274;52.012;8.448;2023-03-04T07:57:22;46.50;;;4.50;;
8474;SDS011;4274;52.012;8.448;2023-03-04T07:59:48;42.17;;;4.13;;
8474;SDS011;4274;52.012;8.448;2023-03-04T08:02:13;47.83;;;4.17;;
8474;SDS011;4274;52.012;8.448;2023-03-04T08:04:39;53.73;;;4.23;;
8474;SDS011;4274;52.012;8.448;2023-03-04T08:07:05;56.23;;;4.63;;
8474;SDS011;4274;52.012;8.448;2023-03-04T08:09:30;50.70;;;5.20;;
8474;SDS011;4274;52.012;8.448;2023-03-04T08:11:56;43.43;;;3.83;;
8474;SDS011;4274;52.012;8.448;2023-03-04T08:14:22;59.43;;;4.50;;
8474;SDS011;4274;52.012;8.448;2023-03-04T08:16:47;58.37;;;6.80;;
8474;SDS011;4274;52.012;8.448;2023-03-04T08:19:13;50.30;;;3.90;;
8474;SDS011;4274;52.012;8.448;2023-03-04T08:21:38;47.10;;;4.33;;
8474;SDS011;4274;52.012;8.448;2023-03-04T08:24:04;48.10;;;3.97;;
8474;SDS011;4274;52.012;8.448;2023-03-04T08:26:36;46.43;;;4.43;;
8474;SDS011;4274;52.012;8.448;2023-03-04T08:29:08;48.43;;;4.67;;
8474;SDS011;4274;52.012;8.448;2023-03-04T08:31:36;49.07;;;4.63;;
8474;SDS011;4274;52.012;8.448;2023-03-04T08:34:03;50.37;;;4.47;;
8474;SDS011;4274;52.012;8.448;2023-03-04T08:36:29;47.83;;;4.23;;
8474;SDS011;4274;52.012;8.448;2023-03-04T08:38:55;51.20;;;4.53;;
8474;SDS011;4274;52.012;8.448;2023-03-04T08:41:21;46.73;;;4.70;;
8474;SDS011;4274;52.012;8.448;2023-03-04T08:43:46;45.83;;;4.47;;
8474;SDS011;4274;52.012;8.448;2023-03-04T08:46:12;46.50;;;4.63;;
8474;SDS011;4274;52.012;8.448;2023-03-04T08:48:38;50.23;;;7.77;;
8474;SDS011;4274;52.012;8.448;2023-03-04T08:51:14;46.97;;;5.00;;
8474;SDS011;4274;52.012;8.448;2023-03-04T08:53:40;48.90;;;4.30;;
8474;SDS011;4274;52.012;8.448;2023-03-04T08:56:06;47.17;;;4.53;;
8474;SDS011;4274;52.012;8.448;2023-03-04T08:58:33;45.80;;;4.47;;
8474;SDS011;4274;52.012;8.448;2023-03-04T09:00:59;48.10;;;4.63;;
8474;SDS011;4274;52.012;8.448;2023-03-04T09:03:25;50.93;;;4.40;;
8474;SDS011;4274;52.012;8.448;2023-03-04T09:05:51;51.90;;;4.53;;
8474;SDS011;4274;52.012;8.448;2023-03-04T09:08:17;50.60;;;4.57;;
8474;SDS011;4274;52.012;8.448;2023-03-04T09:10:43;45.43;;;4.40;;
8474;SDS011;4274;52.012;8.448;2023-03-04T09:13:11;51.80;;;5.30;;
8474;SDS011;4274;52.012;8.448;2023-03-04T09:15:42;54.53;;;4.73;;
8474;SDS011;4274;52.012;8.448;2023-03-04T09:18:13;50.40;;;4.17;;
8474;SDS011;4274;52.012;8.448;2023-03-04T09:20:38;43.93;;;3.80;;
8474;SDS011;4274;52.012;8.448;2023-03-04T09:23:04;49.40;;;4.10;;
8474;SDS011;4274;52.012;8.448;2023-03-04T09:25:30;44.80;;;4.60;;
8474;SDS011;4274;52.012;8.448;2023-03-04T09:27:56;44.50;;;3.83;;
8474;SDS011;4274;52.012;8.448;2023-03-04T09:30:21;46.57;;;3.97;;
8474;SDS011;4274;52.012;8.448;2023-03-04T09:32:47;47.40;;;4.23;;
8474;SDS011;4274;52.012;8.448;2023-03-04T09:35:13;53.23;;;4.87;;
8474;SDS011;4274;52.012;8.448;2023-03-04T09:37:38;44.23;;;4.70;;
8474;SDS011;4274;52.012;8.448;2023-03-04T09:40:04;47.90;;;3.80;;
8474;SDS011;4274;52.012;8.448;2023-03-04T09:42:34;44.13;;;4.47;;
8474;SDS011;4274;52.012;8.448;2023-03-04T09:45:10;50.43;;;4.30;;
8474;SDS011;4274;52.012;8.448;2023-03-04T09:47:40;46.47;;;4.07;;
8474;SDS011;4274;52.012;8.448;2023-03-04T09:50:07;44.23;;;4.10;;
8474;SDS011;4274;52.012;8.448;2023-03-04T09:55:24;45.07;;;4.17;;
8474;SDS011;4274;52.012;8.448;2023-03-04T09:57:57;40.93;;;3.90;;
8474;SDS011;4274;52.012;8.448;2023-03-04T10:00:29;44.90;;;4.67;;
8474;SDS011;4274;52.012;8.448;2023-03-04T10:19:35;42.10;;;3.30;;
8474;SDS011;4274;52.012;8.448;2023-03-04T10:24:53;41.47;;;3.70;;
8474;SDS011;4274;52.012;8.448;2023-03-04T10:27:21;46.50;;;4.13;;
8474;SDS011;4274;52.012;8.448;2023-03-04T10:29:48;41.40;;;4.27;;
8474;SDS011;4274;52.012;8.448;2023-03-04T10:32:18;43.10;;;4.10;;
8474;SDS011;4274;52.012;8.448;2023-03-04T10:34:45;42.33;;;3.83;;
8474;SDS011;4274;52.012;8.448;2023-03-04T10:37:10;53.43;;;4.97;;
8474;SDS011;4274;52.012;8.448;2023-03-04T10:44:40;41.57;;;4.10;;
8474;SDS011;4274;52.012;8.448;2023-03-04T10:47:08;44.67;;;4.37;;
8474;SDS011;4274;52.012;8.448;2023-03-04T10:49:38;50.40;;;4.70;;
8474;SDS011;4274;52.012;8.448;2023-03-04T10:55:14;44.70;;;5.20;;
8474;SDS011;4274;52.012;8.448;2023-03-04T10:57:42;43.10;;;4.80;;
8474;SDS011;4274;52.012;8.448;2023-03-04T11:02:50;52.60;;;4.60;;
8474;SDS011;4274;52.012;8.448;2023-03-04T11:07:52;43.27;;;4.77;;
8474;SDS011;4274;52.012;8.448;2023-03-04T11:10:23;46.40;;;4.50;;
8474;SDS011;4274;52.012;8.448;2023-03-04T11:15:21;43.77;;;4.33;;
8474;SDS011;4274;52.012;8.448;2023-03-04T11:17:52;43.67;;;4.27;;
8474;SDS011;4274;52.012;8.448;2023-03-04T11:20:54;46.27;;;3.80;;
8474;SDS011;4274;52.012;8.448;2023-03-04T11:23:22;47.10;;;3.57;;
8474;SDS011;4274;52.012;8.448;2023-03-04T11:25:57;45.80;;;3.40;;
8474;SDS011;4274;52.012;8.448;2023-03-04T11:31:22;51.33;;;3.50;;
8474;SDS011;4274;52.012;8.448;2023-03-04T11:36:53;46.07;;;3.00;;
8474;SDS011;4274;52.012;8.448;2023-03-04T11:42:23;55.37;;;4.40;;
8474;SDS011;4274;52.012;8.448;2023-03-04T11:45:13;45.87;;;3.30;;
8474;SDS011;4274;52.012;8.448;2023-03-04T11:47:58;46.30;;;3.23;;
8474;SDS011;4274;52.012;8.448;2023-03-04T11:56:35;47.40;;;3.30;;
8474;SDS011;4274;52.012;8.448;2023-03-04T12:07:46;44.33;;;3.37;;
8474;SDS011;4274;52.012;8.448;2023-03-04T12:10:48;45.07;;;3.23;;
8474;SDS011;4274;52.012;8.448;2023-03-04T12:19:04;46.77;;;3.27;;
8474;SDS011;4274;52.012;8.448;2023-03-04T12:21:53;44.33;;;2.90;;
8474;SDS011;4274;52.012;8.448;2023-03-04T12:27:19;41.80;;;2.80;;
8474;SDS011;4274;52.012;8.448;2023-03-04T12:30:05;46.87;;;3.03;;
8474;SDS011;4274;52.012;8.448;2023-03-04T12:38:18;42.63;;;2.47;;
8474;SDS011;4274;52.012;8.448;2023-03-04T12:43:21;47.77;;;3.00;;
8474;SDS011;4274;52.012;8.448;2023-03-04T12:46:47;47.97;;;3.17;;
8474;SDS011;4274;52.012;8.448;2023-03-04T12:49:07;44.73;;;2.80;;
8474;SDS011;4274;52.012;8.448;2023-03-04T12:51:51;46.07;;;3.70;;
8474;SDS011;4274;52.012;8.448;2023-03-04T12:59:22;49.83;;;4.20;;
8474;SDS011;4274;52.012;8.448;2023-03-04T13:04:39;45.57;;;2.80;;
8474;SDS011;4274;52.012;8.448;2023-03-04T13:07:36;47.37;;;3.00;;
8474;SDS011;4274;52.012;8.448;2023-03-04T13:10:06;49.93;;;3.23;;
8474;SDS011;4274;52.012;8.448;2023-03-04T13:12:50;45.13;;;2.90;;
8474;SDS011;4274;52.012;8.448;2023-03-04T13:25:34;43.17;;;2.93;;
8474;SDS011;4274;52.012;8.448;2023-03-04T13:28:20;46.93;;;3.10;;
8474;SDS011;4274;52.012;8.448;2023-03-04T13:43:53;44.37;;;2.70;;
8474;SDS011;4274;52.012;8.448;2023-03-04T13:51:26;47.00;;;3.67;;
8474;SDS011;4274;52.012;8.448;2023-03-04T13:54:04;44.40;;;2.73;;
8474;SDS011;4274;52.012;8.448;2023-03-04T13:56:40;43.83;;;2.40;;
8474;SDS011;4274;52.012;8.448;2023-03-04T13:59:12;45.50;;;2.97;;
8474;SDS011;4274;52.012;8.448;2023-03-04T14:06:45;44.50;;;3.37;;
8474;SDS011;4274;52.012;8.448;2023-03-04T14:09:13;44.57;;;2.97;;
8474;SDS011;4274;52.012;8.448;2023-03-04T14:12:00;47.80;;;3.10;;
8474;SDS011;4274;52.012;8.448;2023-03-04T14:14:30;45.33;;;2.83;;
8474;SDS011;4274;52.012;8.448;2023-03-04T14:17:21;43.37;;;2.60;;
8474;SDS011;4274;52.012;8.448;2023-03-04T14:19:50;47.00;;;2.90;;
8474;SDS011;4274;52.012;8.448;2023-03-04T14:22:27;47.67;;;3.50;;
8474;SDS011;4274;52.012;8.448;2023-03-04T14:27:33;47.43;;;4.17;;
8474;SDS011;4274;52.012;8.448;2023-03-04T14:30:04;49.87;;;3.63;;
8474;SDS011;4274;52.012;8.448;2023-03-04T14:32:57;44.20;;;3.37;;
8474;SDS011;4274;52.012;8.448;2023-03-04T14:35:24;48.30;;;3.53;;
8474;SDS011;4274;52.012;8.448;2023-03-04T14:38:04;47.33;;;3.60;;
8474;SDS011;4274;52.012;8.448;2023-03-04T14:40:43;46.83;;;3.47;;
8474;SDS011;4274;52.012;8.448;2023-03-04T14:43:16;45.60;;;2.90;;
8474;SDS011;4274;52.012;8.448;2023-03-04T14:45:44;49.80;;;3.30;;
8474;SDS011;4274;52.012;8.448;2023-03-04T14:48:15;44.60;;;3.60;;
8474;SDS011;4274;52.012;8.448;2023-03-04T14:50:47;44.10;;;2.60;;
8474;SDS011;4274;52.012;8.448;2023-03-04T14:53:17;46.37;;;3.33;;
8474;SDS011;4274;52.012;8.448;2023-03-04T14:56:04;48.23;;;3.50;;
8474;SDS011;4274;52.012;8.448;2023-03-04T14:58:33;51.40;;;3.20;;
8474;SDS011;4274;52.012;8.448;2023-03-04T15:03:29;47.50;;;3.30;;
8474;SDS011;4274;52.012;8.448;2023-03-04T15:06:05;54.43;;;3.37;;
8474;SDS011;4274;52.012;8.448;2023-03-04T15:08:54;46.00;;;3.57;;
8474;SDS011;4274;52.012;8.448;2023-03-04T15:11:25;43.90;;;3.10;;
8474;SDS011;4274;52.012;8.448;2023-03-04T15:13:58;43.30;;;3.00;;
8474;SDS011;4274;52.012;8.448;2023-03-04T15:16:26;52.30;;;3.37;;
8474;SDS011;4274;52.012;8.448;2023-03-04T15:23:59;42.10;;;3.20;;
8474;SDS011;4274;52.012;8.448;2023-03-04T15:26:26;47.30;;;4.20;;
8474;SDS011;4274;52.012;8.448;2023-03-04T15:28:52;45.67;;;2.77;;
8474;SDS011;4274;52.012;8.448;2023-03-04T15:31:19;44.60;;;4.10;;
8474;SDS011;4274;52.012;8.448;2023-03-04T15:33:46;42.13;;;2.90;;
8474;SDS011;4274;52.012;8.448;2023-03-04T15:36:16;42.83;;;2.80;;
8474;SDS011;4274;52.012;8.448;2023-03-04T15:38:46;45.17;;;2.90;;
8474;SDS011;4274;52.012;8.448;2023-03-04T15:41:16;46.33;;;3.20;;
8474;SDS011;4274;52.012;8.448;2023-03-04T15:43:47;42.80;;;2.53;;
8474;SDS011;4274;52.012;8.448;2023-03-04T15:46:12;43.27;;;3.37;;
8474;SDS011;4274;52.012;8.448;2023-03-04T15:48:38;42.70;;;2.67;;
8474;SDS011;4274;52.012;8.448;2023-03-04T15:51:05;42.43;;;2.67;;
8474;SDS011;4274;52.012;8.448;2023-03-04T15:53:38;48.70;;;3.20;;
8474;SDS011;4274;52.012;8.448;2023-03-04T15:56:28;43.90;;;3.00;;
8474;SDS011;4274;52.012;8.448;2023-03-04T15:58:58;45.67;;;2.90;;
8474;SDS011;4274;52.012;8.448;2023-03-04T16:01:30;51.70;;;3.77;;
8474;SDS011;4274;52.012;8.448;2023-03-04T16:03:55;50.20;;;3.40;;
8474;SDS011;4274;52.012;8.448;2023-03-04T16:06:21;42.40;;;2.77;;
8474;SDS011;4274;52.012;8.448;2023-03-04T16:08:49;43.90;;;2.83;;
8474;SDS011;4274;52.012;8.448;2023-03-04T16:11:20;48.10;;;3.37;;
8474;SDS011;4274;52.012;8.448;2023-03-04T16:13:48;47.40;;;3.47;;
8474;SDS011;4274;52.012;8.448;2023-03-04T16:16:14;47.30;;;3.43;;
8474;SDS011;4274;52.012;8.448;2023-03-04T16:18:40;43.40;;;3.20;;
8474;SDS011;4274;52.012;8.448;2023-03-04T16:21:06;43.83;;;3.10;;
8474;SDS011;4274;52.012;8.448;2023-03-04T16:23:39;47.47;;;4.83;;
8474;SDS011;4274;52.012;8.448;2023-03-04T16:26:11;44.30;;;3.23;;
8474;SDS011;4274;52.012;8.448;2023-03-04T16:28:38;50.13;;;3.07;;
8474;SDS011;4274;52.012;8.448;2023-03-04T16:31:04;43.83;;;3.17;;
8474;SDS011;4274;52.012;8.448;2023-03-04T16:33:30;47.93;;;3.90;;
8474;SDS011;4274;52.012;8.448;2023-03-04T16:35:55;46.73;;;4.10;;
8474;SDS011;4274;52.012;8.448;2023-03-04T16:38:27;44.73;;;3.17;;
8474;SDS011;4274;52.012;8.448;2023-03-04T16:40:56;51.40;;;4.13;;
8474;SDS011;4274;52.012;8.448;2023-03-04T16:43:23;49.90;;;4.37;;
8474;SDS011;4274;52.012;8.448;2023-03-04T16:45:49;46.63;;;3.50;;
8474;SDS011;4274;52.012;8.448;2023-03-04T16:48:15;55.80;;;3.23;;
8474;SDS011;4274;52.012;8.448;2023-03-04T16:50:41;43.27;;;2.97;;
8474;SDS011;4274;52.012;8.448;2023-03-04T16:53:16;41.27;;;2.90;;
8474;SDS011;4274;52.012;8.448;2023-03-04T16:55:50;43.70;;;3.60;;
8474;SDS011;4274;52.012;8.448;2023-03-04T16:58:16;45.17;;;3.20;;
8474;SDS011;4274;52.012;8.448;2023-03-04T17:00:41;44.20;;;3.43;;
8474;SDS011;4274;52.012;8.448;2023-03-04T17:03:08;46.10;;;3.00;;
8474;SDS011;4274;52.012;8.448;2023-03-04T17:05:35;46.60;;;3.87;;
8474;SDS011;4274;52.012;8.448;2023-03-04T17:08:01;45.87;;;2.97;;
8474;SDS011;4274;52.012;8.448;2023-03-04T17:10:27;46.40;;;3.60;;
8474;SDS011;4274;52.012;8.448;2023-03-04T17:12:53;44.03;;;3.33;;
8474;SDS011;4274;52.012;8.448;2023-03-04T17:15:19;44.67;;;3.10;;
8474;SDS011;4274;52.012;8.448;2023-03-04T17:17:44;46.53;;;3.47;;
8474;SDS011;4274;52.012;8.448;2023-03-04T17:20:12;45.50;;;3.93;;
8474;SDS011;4274;52.012;8.448;2023-03-04T17:22:40;46.27;;;3.57;;